Time;durP1;ratioP1;P1;durP2;ratioP2;P2;SDS_P1;SDS_P2;PMS_P1;PMS_P2;Temp;Humidity;BMP_temperature;BMP_pressure;BME280_temperature;BME280_humidity;BME280_pressure;Samples;Min_cycle;Max_cycle;Signal;HPM_P1;HPM_P2
2021/08/27 00:00:26;;;;;;;2.20;2.00;;;13.10;99.90;;;;;;5012671;28;20208;-70
2021/08/27 00:02:52;;;;;;;2.63;2.20;;;13.00;99.90;;;;;;5012633;28;20247;-70
2021/08/27 00:05:17;;;;;;;2.63;2.30;;;13.00;99.90;;;;;;5012557;28;20209;-70
2021/08/27 00:07:42;;;;;;;3.00;2.13;;;13.00;99.90;;;;;;5012451;28;20259;-71
2021/08/27 00:10:08;;;;;;;2.93;2.70;;;13.00;99.90;;;;;;5012333;28;20178;-70
2021/08/27 00:12:35;;;;;;;2.40;2.00;;;13.00;99.90;;;;;;5012310;28;20192;-71
2021/08/27 00:15:02;;;;;;;2.63;2.10;;;13.00;99.90;;;;;;5012259;28;20489;-70
2021/08/27 00:17:30;;;;;;;2.40;2.20;;;13.00;99.90;;;;;;5012112;28;20492;-70
2021/08/27 00:20:00;;;;;;;2.67;2.47;;;13.00;99.90;;;;;;5012099;28;20458;-70
2021/08/27 00:22:27;;;;;;;2.90;2.67;;;12.90;99.90;;;;;;5012096;28;20422;-70
2021/08/27 00:24:52;;;;;;;4.17;2.40;;;12.90;99.90;;;;;;5011927;28;20433;-70
2021/08/27 00:27:18;;;;;;;5.23;2.77;;;13.00;99.90;;;;;;5012367;28;20963;-70
2021/08/27 00:29:43;;;;;;;5.87;2.97;;;13.00;99.90;;;;;;5011969;28;20242;-70
2021/08/27 00:32:09;;;;;;;3.37;2.50;;;12.90;99.90;;;;;;5011940;28;20188;-70
2021/08/27 00:34:34;;;;;;;4.03;2.20;;;12.90;99.90;;;;;;5012051;28;20210;-70
2021/08/27 00:37:00;;;;;;;4.20;2.57;;;12.90;99.90;;;;;;5011959;28;20185;-70
2021/08/27 00:39:26;;;;;;;4.53;2.40;;;12.90;99.90;;;;;;5011781;28;20188;-70
2021/08/27 00:41:52;;;;;;;2.63;2.43;;;12.90;99.90;;;;;;5011728;28;20407;-70
2021/08/27 00:44:18;;;;;;;4.57;4.03;;;12.90;99.90;;;;;;5011317;28;20403;-70
2021/08/27 00:46:44;;;;;;;4.47;2.07;;;12.80;99.90;;;;;;5011698;28;20410;-70
2021/08/27 00:49:09;;;;;;;2.77;2.57;;;12.80;99.90;;;;;;5011884;28;20619;-70
2021/08/27 00:51:35;;;;;;;4.50;2.57;;;12.90;99.90;;;;;;5011668;28;20299;-70
2021/08/27 00:54:01;;;;;;;3.20;2.27;;;12.80;99.90;;;;;;5011627;28;20246;-70
2021/08/27 00:56:28;;;;;;;3.00;2.40;;;12.80;99.90;;;;;;5011566;28;20670;-70
2021/08/27 00:58:53;;;;;;;3.07;2.77;;;12.80;99.90;;;;;;5011610;28;20482;-70
2021/08/27 01:01:19;;;;;;;2.83;2.63;;;12.80;99.90;;;;;;5011517;28;20805;-70
2021/08/27 01:03:45;;;;;;;2.80;2.53;;;12.80;99.90;;;;;;5011553;28;20267;-70
2021/08/27 01:06:22;;;;;;;3.67;2.50;;;12.80;99.90;;;;;;5011703;28;20250;-70
2021/08/27 01:08:57;;;;;;;5.33;3.03;;;12.80;99.90;;;;;;5011692;28;20179;-71
2021/08/27 01:11:35;;;;;;;3.03;2.73;;;12.70;99.90;;;;;;5011778;28;20407;-71
2021/08/27 01:14:07;;;;;;;2.87;2.50;;;12.80;99.90;;;;;;5012219;28;20423;-70
2021/08/27 01:16:45;;;;;;;3.73;3.10;;;12.80;99.90;;;;;;5011721;28;20466;-70
2021/08/27 01:19:48;;;;;;;4.00;2.90;;;12.80;99.90;;;;;;5011651;28;20458;-71
2021/08/27 01:22:49;;;;;;;3.30;3.00;;;12.80;99.90;;;;;;5011702;28;20423;-70
2021/08/27 01:25:17;;;;;;;2.90;2.70;;;12.80;99.90;;;;;;5006522;28;20457;-69
2021/08/27 01:27:44;;;;;;;4.30;3.10;;;12.80;99.90;;;;;;5011459;28;20427;-69
2021/08/27 01:30:14;;;;;;;3.30;2.53;;;12.80;99.90;;;;;;5011540;28;20411;-70
2021/08/27 01:33:00;;;;;;;3.50;2.93;;;12.80;99.90;;;;;;5011271;28;20427;-70
2021/08/27 01:35:29;;;;;;;3.37;3.03;;;12.90;99.90;;;;;;5011708;28;20914;-70
2021/08/27 01:37:56;;;;;;;3.00;2.63;;;12.90;99.90;;;;;;5011447;28;20419;-70
2021/08/27 01:40:23;;;;;;;2.60;2.40;;;12.80;99.90;;;;;;5011481;28;21000;-70
2021/08/27 01:42:51;;;;;;;4.13;2.37;;;12.80;99.90;;;;;;5011213;28;20431;-70
2021/08/27 01:45:18;;;;;;;2.57;2.37;;;12.80;99.90;;;;;;5011277;28;20407;-70
2021/08/27 01:47:44;;;;;;;2.90;2.30;;;12.80;99.90;;;;;;5011195;28;20777;-71
2021/08/27 01:50:12;;;;;;;4.00;2.63;;;12.80;99.90;;;;;;5011648;28;20922;-71
2021/08/27 01:52:39;;;;;;;2.00;1.90;;;12.90;99.90;;;;;;5011055;28;20496;-70
2021/08/27 01:55:06;;;;;;;5.10;3.03;;;12.90;99.90;;;;;;5012168;28;20426;-70
2021/08/27 01:57:33;;;;;;;2.57;2.37;;;12.90;99.90;;;;;;5014914;28;20414;-70
2021/08/27 01:59:59;;;;;;;2.70;2.50;;;12.90;99.90;;;;;;5014757;28;20502;-70
2021/08/27 02:02:26;;;;;;;2.53;2.33;;;12.90;99.90;;;;;;5014844;28;20497;-70
2021/08/27 02:04:56;;;;;;;3.13;2.70;;;12.90;99.90;;;;;;5014859;28;20407;-70
2021/08/27 02:07:22;;;;;;;3.60;2.57;;;12.90;99.90;;;;;;5015003;28;20395;-70
2021/08/27 02:09:52;;;;;;;3.40;2.50;;;12.90;99.90;;;;;;5015017;28;20442;-70
2021/08/27 02:12:18;;;;;;;2.90;2.63;;;12.90;99.90;;;;;;5014700;28;20675;-70
2021/08/27 02:14:47;;;;;;;2.60;2.40;;;12.90;99.90;;;;;;5014545;28;20447;-70
2021/08/27 02:17:13;;;;;;;4.07;2.87;;;12.90;99.90;;;;;;5014510;28;20430;-70
2021/08/27 02:19:39;;;;;;;4.23;2.40;;;12.90;99.90;;;;;;5014419;28;20463;-70
2021/08/27 02:22:10;;;;;;;3.70;2.60;;;12.90;99.90;;;;;;5014286;28;20188;-70
2021/08/27 02:24:53;;;;;;;2.57;2.10;;;12.90;99.90;;;;;;5014411;28;20180;-70
2021/08/27 02:27:19;;;;;;;4.13;2.23;;;12.90;99.90;;;;;;5014260;28;20859;-70
2021/08/27 02:29:45;;;;;;;3.30;3.10;;;13.00;99.90;;;;;;5014464;28;20434;-70
2021/08/27 02:32:12;;;;;;;2.60;2.20;;;12.90;99.90;;;;;;4996564;28;20942;-72
2021/08/27 02:34:41;;;;;;;2.73;2.53;;;13.00;99.90;;;;;;5014184;28;20906;-70
2021/08/27 02:37:08;;;;;;;3.80;2.10;;;12.90;99.90;;;;;;5014166;28;20949;-70
2021/08/27 02:39:34;;;;;;;2.47;2.13;;;12.90;99.90;;;;;;5013931;28;20454;-70
2021/08/27 02:42:00;;;;;;;3.13;2.00;;;12.90;99.90;;;;;;5014089;28;20435;-70
2021/08/27 02:44:26;;;;;;;2.67;2.40;;;13.00;99.90;;;;;;5014570;28;20176;-70
2021/08/27 02:46:51;;;;;;;2.47;2.27;;;12.90;99.90;;;;;;5014031;28;20406;-70
2021/08/27 02:49:17;;;;;;;4.50;2.23;;;12.90;99.90;;;;;;5014831;28;20222;-70
2021/08/27 02:51:50;;;;;;;2.97;2.67;;;13.00;99.90;;;;;;5013832;28;20185;-70
2021/08/27 02:54:20;;;;;;;2.00;1.90;;;13.00;99.90;;;;;;5013818;28;20208;-70
2021/08/27 02:56:49;;;;;;;3.07;2.80;;;13.00;99.90;;;;;;5014033;28;20407;-70
2021/08/27 02:59:17;;;;;;;2.60;2.40;;;13.10;99.90;;;;;;5013744;28;20819;-70
2021/08/27 03:01:51;;;;;;;2.97;2.70;;;13.10;99.90;;;;;;5013682;28;20404;-70
2021/08/27 03:04:47;;;;;;;2.20;1.97;;;13.10;99.90;;;;;;5013773;28;20403;-71
2021/08/27 03:07:16;;;;;;;5.80;2.03;;;13.00;99.90;;;;;;5012999;28;20921;-71
2021/08/27 03:09:59;;;;;;;2.20;2.00;;;13.00;99.90;;;;;;5013725;28;20415;-72
2021/08/27 03:12:41;;;;;;;2.53;2.23;;;13.00;99.90;;;;;;5013555;28;20501;-71
2021/08/27 03:15:09;;;;;;;2.10;2.00;;;13.00;99.90;;;;;;5013531;28;20399;-71
2021/08/27 03:17:39;;;;;;;1.90;1.80;;;13.00;99.90;;;;;;5013295;28;20427;-71
2021/08/27 03:20:19;;;;;;;2.10;1.83;;;13.00;99.90;;;;;;5013528;28;20458;-71
2021/08/27 03:22:50;;;;;;;1.70;1.60;;;13.00;99.90;;;;;;5013640;28;20419;-71
2021/08/27 03:25:17;;;;;;;1.70;1.60;;;13.10;99.90;;;;;;5012684;28;20469;-71
2021/08/27 03:27:47;;;;;;;1.63;1.53;;;13.10;99.90;;;;;;5013150;28;20402;-71
2021/08/27 03:30:21;;;;;;;1.57;1.47;;;13.00;99.90;;;;;;5013258;28;20414;-70
2021/08/27 03:32:50;;;;;;;1.43;1.33;;;13.00;99.90;;;;;;5013277;28;20957;-69
2021/08/27 03:35:17;;;;;;;3.00;1.37;;;12.90;99.90;;;;;;5013101;28;20450;-69
2021/08/27 03:37:44;;;;;;;1.40;1.30;;;13.00;99.90;;;;;;5012221;28;20756;-69
2021/08/27 03:40:11;;;;;;;1.50;1.10;;;13.00;99.90;;;;;;4995274;28;20459;-69
2021/08/27 03:42:38;;;;;;;3.70;1.77;;;13.00;99.90;;;;;;4995048;28;20570;-69
2021/08/27 03:45:04;;;;;;;1.63;1.40;;;13.00;99.90;;;;;;5013102;28;20404;-70
2021/08/27 03:47:31;;;;;;;1.60;1.50;;;13.00;99.90;;;;;;5012702;28;20410;-70
2021/08/27 03:49:57;;;;;;;1.30;1.20;;;13.10;99.90;;;;;;5012899;28;20414;-70
2021/08/27 03:52:23;;;;;;;1.13;1.03;;;13.00;99.90;;;;;;5012564;28;20431;-70
2021/08/27 03:54:49;;;;;;;1.50;1.40;;;13.10;99.90;;;;;;5012634;28;20642;-70
2021/08/27 03:57:16;;;;;;;1.40;1.10;;;13.00;99.90;;;;;;5012812;28;20401;-70
2021/08/27 03:59:43;;;;;;;1.23;1.13;;;13.00;99.90;;;;;;5012624;28;20545;-70
2021/08/27 04:02:11;;;;;;;1.60;1.40;;;13.00;99.90;;;;;;5012498;28;20427;-70
2021/08/27 04:04:37;;;;;;;1.30;1.20;;;13.00;99.90;;;;;;5012460;28;20395;-70
2021/08/27 04:07:03;;;;;;;1.40;1.20;;;13.00;99.90;;;;;;5012335;28;20921;-70
2021/08/27 04:09:31;;;;;;;1.60;1.30;;;13.00;99.90;;;;;;5012424;28;20179;-70
2021/08/27 04:11:58;;;;;;;1.40;1.30;;;13.00;99.90;;;;;;5012273;28;20419;-70
2021/08/27 04:14:24;;;;;;;1.60;1.50;;;13.10;99.90;;;;;;5012284;28;20469;-70
2021/08/27 04:16:49;;;;;;;1.20;1.10;;;13.10;99.90;;;;;;5012205;28;20836;-70
2021/08/27 04:19:15;;;;;;;1.17;1.07;;;13.10;99.90;;;;;;5011279;28;20188;-70
2021/08/27 04:21:42;;;;;;;1.80;1.70;;;13.10;99.90;;;;;;5012154;28;20161;-71
2021/08/27 04:24:07;;;;;;;1.40;1.30;;;13.10;99.90;;;;;;5012079;28;20302;-70
2021/08/27 04:26:33;;;;;;;2.40;1.83;;;13.10;99.90;;;;;;5012502;28;20498;-70
2021/08/27 04:28:59;;;;;;;1.50;1.40;;;13.10;99.90;;;;;;5011914;28;20242;-72
2021/08/27 04:31:25;;;;;;;1.90;1.80;;;13.20;99.90;;;;;;5012209;28;20415;-70
2021/08/27 04:33:50;;;;;;;2.10;1.90;;;13.20;99.90;;;;;;4994493;28;20671;-70
2021/08/27 04:36:16;;;;;;;1.60;1.50;;;13.20;99.90;;;;;;5012123;28;20603;-70
2021/08/27 04:38:41;;;;;;;2.50;2.23;;;13.20;99.90;;;;;;5011934;28;20180;-70
2021/08/27 04:41:07;;;;;;;1.80;1.70;;;13.10;99.90;;;;;;5011879;28;20255;-70
2021/08/27 04:43:32;;;;;;;2.50;2.30;;;13.20;99.90;;;;;;5012122;28;20271;-70
2021/08/27 04:45:57;;;;;;;2.53;2.33;;;13.20;99.90;;;;;;5012244;28;20175;-70
2021/08/27 04:48:24;;;;;;;2.40;2.20;;;13.20;99.90;;;;;;5011794;28;20176;-70
2021/08/27 04:50:50;;;;;;;3.83;2.20;;;13.20;99.90;;;;;;5012201;28;20176;-70
2021/08/27 04:53:15;;;;;;;3.10;2.37;;;13.20;99.90;;;;;;5012162;28;20497;-70
2021/08/27 04:55:41;;;;;;;2.33;2.13;;;13.20;99.90;;;;;;5011693;28;20182;-70
2021/08/27 04:58:06;;;;;;;3.30;2.30;;;13.30;99.90;;;;;;5011760;28;20230;-69
2021/08/27 05:00:32;;;;;;;2.90;2.33;;;13.30;99.90;;;;;;5011569;28;20242;-69
2021/08/27 05:02:57;;;;;;;2.50;2.30;;;13.30;99.90;;;;;;5011454;28;20287;-69
2021/08/27 05:05:23;;;;;;;2.83;2.63;;;13.30;99.90;;;;;;5011380;28;20176;-72
2021/08/27 05:07:48;;;;;;;2.70;2.50;;;13.30;99.90;;;;;;5011592;28;20658;-69
2021/08/27 05:10:14;;;;;;;3.00;2.80;;;13.30;99.90;;;;;;5011581;28;20177;-69
2021/08/27 05:12:40;;;;;;;2.50;2.17;;;13.30;99.90;;;;;;5011354;28;20227;-70
2021/08/27 05:15:06;;;;;;;3.40;2.73;;;13.30;99.90;;;;;;5011535;28;20679;-70
2021/08/27 05:17:32;;;;;;;7.17;3.60;;;13.30;99.90;;;;;;5011149;28;20427;-70
2021/08/27 05:19:58;;;;;;;2.63;2.43;;;13.30;99.90;;;;;;5011465;28;20987;-70
2021/08/27 05:22:23;;;;;;;4.00;2.30;;;13.30;99.90;;;;;;5011616;28;20612;-70
2021/08/27 05:24:48;;;;;;;2.80;2.60;;;13.30;99.90;;;;;;5011474;28;20634;-70
2021/08/27 05:27:14;;;;;;;3.93;2.70;;;13.30;99.90;;;;;;5011348;28;20164;-69
2021/08/27 05:29:40;;;;;;;2.50;2.30;;;13.40;99.90;;;;;;5011964;28;20176;-70
2021/08/27 05:32:06;;;;;;;2.40;2.20;;;13.40;99.90;;;;;;5015487;28;20691;-72
2021/08/27 05:34:32;;;;;;;3.43;3.13;;;13.40;99.90;;;;;;5015566;28;20168;-71
2021/08/27 05:36:57;;;;;;;3.03;2.73;;;13.40;99.90;;;;;;5015505;28;20419;-71
2021/08/27 05:39:27;;;;;;;2.93;2.67;;;13.30;99.90;;;;;;5015767;28;20250;-70
2021/08/27 05:41:53;;;;;;;3.73;3.13;;;13.30;99.90;;;;;;5015719;28;20223;-70
2021/08/27 05:44:19;;;;;;;4.10;3.70;;;13.30;99.90;;;;;;5015443;28;20411;-70
2021/08/27 05:46:44;;;;;;;3.80;3.50;;;13.30;99.90;;;;;;4997622;28;20909;-71
2021/08/27 05:49:10;;;;;;;3.80;3.50;;;13.40;99.90;;;;;;5015097;28;20515;-70
2021/08/27 05:51:35;;;;;;;3.70;3.40;;;13.40;99.90;;;;;;5015287;28;20255;-70
2021/08/27 05:54:01;;;;;;;3.50;3.20;;;13.50;99.90;;;;;;5015114;28;20262;-71
2021/08/27 05:56:26;;;;;;;4.00;3.60;;;13.50;99.90;;;;;;5015238;28;20168;-71
2021/08/27 05:58:52;;;;;;;3.57;3.27;;;13.50;99.90;;;;;;5014949;28;20277;-71
2021/08/27 06:01:17;;;;;;;2.87;2.67;;;13.50;99.90;;;;;;5015036;28;20180;-71
2021/08/27 06:03:43;;;;;;;2.70;2.50;;;13.50;99.90;;;;;;5014795;28;20188;-71
2021/08/27 06:06:08;;;;;;;3.73;2.47;;;13.50;99.90;;;;;;5015039;28;20606;-71
2021/08/27 06:08:35;;;;;;;2.60;2.40;;;13.60;99.90;;;;;;5014804;28;20168;-71
2021/08/27 06:11:00;;;;;;;2.63;2.43;;;13.90;99.90;;;;;;5014866;28;20255;-71
2021/08/27 06:13:26;;;;;;;2.03;1.83;;;14.70;99.90;;;;;;5014701;28;20415;-71
2021/08/27 06:15:51;;;;;;;1.77;1.37;;;15.90;99.90;;;;;;5014597;28;20184;-71
2021/08/27 06:18:17;;;;;;;1.53;1.43;;;16.40;99.90;;;;;;5014361;28;20172;-71
2021/08/27 06:20:42;;;;;;;2.00;1.20;;;17.40;99.90;;;;;;5014598;28;20207;-71
2021/08/27 06:23:08;;;;;;;1.57;1.47;;;17.50;99.90;;;;;;5014573;28;20236;-71
2021/08/27 06:25:35;;;;;;;2.03;1.17;;;17.10;99.90;;;;;;5014484;28;20172;-71
2021/08/27 06:28:00;;;;;;;1.37;1.00;;;16.50;99.90;;;;;;5014595;28;20196;-71
2021/08/27 06:30:26;;;;;;;1.63;1.33;;;16.00;99.90;;;;;;5014357;28;20452;-71
2021/08/27 06:32:52;;;;;;;1.97;1.40;;;15.80;99.90;;;;;;5014495;28;20278;-71
2021/08/27 06:35:17;;;;;;;2.00;1.23;;;15.80;99.90;;;;;;5014952;28;20175;-70
2021/08/27 06:40:27;;;;;;;1.80;1.40;;;15.30;99.90;;;;;;5015038;28;20212;-70
2021/08/27 06:42:53;;;;;;;1.73;1.63;;;15.40;99.90;;;;;;5013807;28;20793;-70
2021/08/27 06:45:18;;;;;;;1.80;1.70;;;15.10;99.90;;;;;;5014076;28;20176;-70
2021/08/27 06:47:43;;;;;;;1.67;1.57;;;14.80;99.90;;;;;;5014033;28;20169;-72
2021/08/27 06:50:09;;;;;;;2.20;1.33;;;14.80;99.90;;;;;;5014113;28;20651;-70
2021/08/27 06:52:35;;;;;;;1.50;1.40;;;14.70;99.90;;;;;;5013884;28;20191;-70
2021/08/27 06:55:00;;;;;;;1.90;1.80;;;14.40;99.90;;;;;;5013805;28;20251;-70
2021/08/27 06:57:26;;;;;;;1.83;1.73;;;14.30;99.90;;;;;;5014042;28;20279;-70
2021/08/27 06:59:52;;;;;;;3.93;1.80;;;14.20;99.90;;;;;;5013873;28;20663;-71
2021/08/27 07:02:17;;;;;;;1.83;1.73;;;14.10;99.90;;;;;;5013611;28;20227;-72
2021/08/27 07:04:43;;;;;;;1.50;1.40;;;14.20;99.90;;;;;;5013984;28;20435;-71
2021/08/27 07:07:08;;;;;;;1.80;1.70;;;14.20;99.90;;;;;;5013623;28;20181;-70
2021/08/27 07:09:34;;;;;;;3.57;1.53;;;14.20;99.90;;;;;;5013819;28;20248;-71
2021/08/27 07:12:02;;;;;;;1.83;1.73;;;14.20;99.90;;;;;;5013694;28;20196;-72
2021/08/27 07:14:28;;;;;;;1.77;1.67;;;14.30;99.90;;;;;;5012439;28;20175;-71
2021/08/27 07:16:53;;;;;;;1.80;1.57;;;14.30;99.90;;;;;;5013228;28;20786;-71
2021/08/27 07:19:19;;;;;;;1.50;1.40;;;14.50;99.90;;;;;;5013304;28;20196;-72
2021/08/27 07:21:45;;;;;;;1.70;1.60;;;14.80;99.90;;;;;;5013445;28;20239;-70
2021/08/27 07:24:11;;;;;;;1.50;1.33;;;14.90;99.90;;;;;;5013548;28;20227;-70
2021/08/27 07:26:36;;;;;;;1.30;1.20;;;15.00;99.90;;;;;;5013252;28;20416;-71
2021/08/27 07:29:02;;;;;;;1.67;1.37;;;15.30;99.90;;;;;;5013692;28;20211;-70
2021/08/27 07:31:27;;;;;;;3.03;1.80;;;15.30;99.90;;;;;;5013690;28;20263;-71
2021/08/27 07:33:53;;;;;;;1.73;1.30;;;15.30;99.90;;;;;;5013530;28;20265;-71
2021/08/27 07:36:18;;;;;;;1.47;1.37;;;15.40;99.90;;;;;;5013345;28;20540;-71
2021/08/27 07:38:44;;;;;;;1.20;1.07;;;15.50;99.90;;;;;;5012864;28;20181;-70
2021/08/27 07:41:09;;;;;;;1.70;1.10;;;17.00;99.90;;;;;;5012985;28;20168;-70
2021/08/27 07:43:34;;;;;;;1.10;1.00;;;18.40;99.90;;;;;;5012777;28;20674;-71
2021/08/27 07:46:00;;;;;;;1.70;1.17;;;19.90;99.90;;;;;;5012838;28;20175;-71
2021/08/27 07:48:27;;;;;;;2.50;1.10;;;20.30;99.90;;;;;;5012613;28;20241;-71
2021/08/27 07:50:52;;;;;;;4.43;1.50;;;20.80;99.90;;;;;;5012802;28;20184;-71
2021/08/27 07:53:18;;;;;;;2.20;1.27;;;21.70;99.90;;;;;;5012428;28;20424;-71
2021/08/27 07:55:43;;;;;;;1.97;0.90;;;21.60;99.90;;;;;;5012832;28;20539;-71
2021/08/27 07:58:09;;;;;;;1.00;0.80;;;21.20;99.90;;;;;;5012328;28;20638;-69
2021/08/27 08:00:35;;;;;;;0.80;0.80;;;21.20;99.90;;;;;;5012403;28;20290;-69
2021/08/27 08:03:00;;;;;;;1.07;0.97;;;21.50;99.90;;;;;;5012363;28;20191;-69
2021/08/27 08:05:26;;;;;;;0.90;0.60;;;20.70;99.90;;;;;;5012527;28;20182;-69
2021/08/27 08:07:52;;;;;;;0.70;0.60;;;21.30;99.90;;;;;;5012332;28;20175;-69
2021/08/27 08:10:17;;;;;;;0.73;0.73;;;21.40;99.90;;;;;;5012464;28;20412;-70
2021/08/27 08:12:43;;;;;;;1.13;0.60;;;19.90;99.90;;;;;;5012172;28;20499;-70
2021/08/27 08:15:08;;;;;;;0.90;0.70;;;19.60;99.90;;;;;;5012206;28;20213;-70
2021/08/27 08:17:34;;;;;;;1.03;0.70;;;19.20;99.90;;;;;;5012264;28;20194;-70
2021/08/27 08:19:59;;;;;;;1.77;0.90;;;19.50;99.90;;;;;;5012174;28;20692;-71
2021/08/27 08:22:25;;;;;;;2.00;0.90;;;19.50;99.90;;;;;;5012385;28;20205;-69
2021/08/27 08:24:51;;;;;;;0.80;0.70;;;18.60;99.90;;;;;;5012149;28;20665;-69
2021/08/27 08:27:16;;;;;;;0.93;0.77;;;18.50;99.90;;;;;;5012062;28;20180;-69
2021/08/27 08:29:42;;;;;;;0.90;0.80;;;18.70;99.90;;;;;;5011978;28;20414;-69
2021/08/27 08:32:08;;;;;;;1.03;0.77;;;19.00;99.90;;;;;;5012221;28;20199;-69
2021/08/27 08:34:33;;;;;;;0.70;0.70;;;19.60;99.90;;;;;;5012022;28;20183;-70
2021/08/27 08:36:59;;;;;;;0.60;0.60;;;19.70;99.90;;;;;;5011950;28;20875;-70
2021/08/27 08:39:24;;;;;;;1.10;0.90;;;19.60;99.90;;;;;;5011797;28;20192;-69
2021/08/27 08:41:51;;;;;;;0.87;0.60;;;19.70;99.90;;;;;;5011740;28;20612;-69
2021/08/27 08:44:17;;;;;;;0.80;0.80;;;19.70;99.90;;;;;;5011734;28;20171;-70
2021/08/27 08:46:45;;;;;;;0.73;0.70;;;20.00;99.90;;;;;;5012009;28;20397;-69
2021/08/27 08:49:13;;;;;;;0.77;0.77;;;19.90;99.90;;;;;;5011968;28;20453;-70
2021/08/27 08:51:43;;;;;;;0.80;0.73;;;19.40;99.90;;;;;;5011631;28;20449;-69
2021/08/27 08:54:11;;;;;;;0.60;0.60;;;18.60;99.90;;;;;;5011865;28;20779;-69
2021/08/27 08:56:37;;;;;;;1.20;0.73;;;18.00;99.90;;;;;;5011500;28;20489;-70
2021/08/27 08:59:02;;;;;;;0.80;0.67;;;18.60;99.90;;;;;;5011567;28;20456;-71
2021/08/27 09:01:28;;;;;;;0.80;0.70;;;19.00;99.90;;;;;;5011661;28;20250;-70
2021/08/27 09:03:53;;;;;;;1.47;0.70;;;19.60;99.90;;;;;;5012095;28;20204;-70
2021/08/27 09:06:19;;;;;;;0.60;0.60;;;20.40;99.90;;;;;;5011203;28;20668;-70
2021/08/27 09:08:46;;;;;;;1.37;1.10;;;20.20;99.90;;;;;;5011649;28;20255;-70
2021/08/27 09:11:23;;;;;;;0.80;0.80;;;19.80;99.90;;;;;;5011504;28;20175;-70
2021/08/27 09:13:52;;;;;;;0.80;0.80;;;19.00;99.90;;;;;;5011755;28;20424;-70
2021/08/27 09:16:18;;;;;;;1.23;0.70;;;18.90;99.90;;;;;;5011525;28;20419;-70
2021/08/27 09:18:48;;;;;;;1.27;0.70;;;19.50;99.90;;;;;;5011322;28;20421;-70
2021/08/27 09:21:30;;;;;;;0.67;0.60;;;19.70;99.90;;;;;;5011479;28;20482;-70
2021/08/27 09:24:17;;;;;;;1.70;0.80;;;20.60;99.90;;;;;;5011434;28;21031;-69
2021/08/27 09:26:44;;;;;;;1.10;0.60;;;20.60;99.90;;;;;;5011333;28;20905;-70
2021/08/27 09:29:10;;;;;;;0.70;0.50;;;20.70;99.90;;;;;;5011673;28;20419;-71
2021/08/27 09:31:38;;;;;;;0.60;0.60;;;20.40;99.90;;;;;;5011868;28;20771;-70
2021/08/27 09:34:04;;;;;;;0.73;0.70;;;20.00;99.90;;;;;;5011512;28;20411;-70
2021/08/27 09:36:31;;;;;;;0.80;0.60;;;19.70;99.90;;;;;;5011909;28;20998;-70
2021/08/27 09:39:11;;;;;;;0.50;0.50;;;19.60;99.90;;;;;;5011313;28;20186;-70
2021/08/27 09:41:36;;;;;;;1.23;0.97;;;19.60;99.90;;;;;;5011703;28;20470;-71
2021/08/27 09:44:03;;;;;;;0.60;0.60;;;18.90;99.90;;;;;;5011340;28;20443;-70
2021/08/27 09:46:32;;;;;;;0.63;0.60;;;18.70;99.90;;;;;;5011363;28;20628;-70
2021/08/27 09:48:59;;;;;;;1.20;0.60;;;18.60;99.90;;;;;;5011031;28;20983;-69
2021/08/27 09:51:43;;;;;;;0.73;0.70;;;18.20;99.90;;;;;;5011427;28;20833;-69
2021/08/27 09:54:09;;;;;;;1.00;0.70;;;18.00;99.90;;;;;;5011241;28;20836;-69
2021/08/27 09:56:43;;;;;;;1.03;0.70;;;18.30;99.90;;;;;;5011353;28;20406;-70
2021/08/27 09:59:09;;;;;;;0.60;0.60;;;18.10;99.90;;;;;;5011168;28;20193;-70
2021/08/27 10:01:45;;;;;;;0.80;0.60;;;18.10;99.90;;;;;;5010978;28;20471;-70
2021/08/27 10:04:11;;;;;;;0.97;0.70;;;18.20;99.90;;;;;;5011149;28;20174;-70
2021/08/27 10:06:38;;;;;;;0.90;0.80;;;18.00;99.90;;;;;;5010954;28;20403;-70
2021/08/27 10:09:03;;;;;;;0.60;0.60;;;18.00;99.90;;;;;;5011005;28;20170;-70
2021/08/27 10:11:30;;;;;;;1.47;0.87;;;18.10;99.90;;;;;;5011008;28;20412;-70
2021/08/27 10:13:55;;;;;;;0.77;0.70;;;18.10;99.90;;;;;;5010785;28;20635;-70
2021/08/27 10:16:22;;;;;;;1.57;0.90;;;17.90;99.90;;;;;;5010884;28;20477;-70
2021/08/27 10:18:47;;;;;;;1.17;0.90;;;18.10;99.90;;;;;;5014740;28;20231;-70
2021/08/27 10:21:13;;;;;;;0.80;0.70;;;18.40;99.90;;;;;;5014816;28;20409;-70
2021/08/27 10:23:39;;;;;;;1.20;0.90;;;17.90;99.90;;;;;;5014666;28;20193;-70
2021/08/27 10:26:16;;;;;;;0.70;0.60;;;17.80;99.90;;;;;;5014752;28;20643;-70
2021/08/27 10:28:43;;;;;;;0.90;0.80;;;17.70;99.90;;;;;;5014434;28;20415;-70
2021/08/27 10:31:08;;;;;;;1.10;1.00;;;17.60;99.90;;;;;;5014704;28;20510;-69
2021/08/27 10:33:43;;;;;;;1.33;1.00;;;17.60;99.90;;;;;;5014321;28;20923;-70
2021/08/27 10:36:08;;;;;;;1.07;1.00;;;17.20;99.90;;;;;;5014160;28;20185;-70
2021/08/27 10:38:42;;;;;;;0.80;0.73;;;16.90;99.90;;;;;;5014021;28;20405;-70
2021/08/27 10:41:16;;;;;;;1.13;1.00;;;16.70;99.90;;;;;;5014172;28;20681;-70
2021/08/27 10:44:03;;;;;;;2.07;1.20;;;16.70;99.90;;;;;;5014423;28;20424;-70
2021/08/27 10:46:47;;;;;;;1.20;1.10;;;16.60;99.90;;;;;;5014054;28;20451;-70
2021/08/27 10:49:39;;;;;;;1.47;1.20;;;16.80;99.90;;;;;;5013999;28;20767;-70
2021/08/27 10:52:21;;;;;;;1.20;1.10;;;16.90;99.90;;;;;;5014000;28;20951;-70
2021/08/27 10:55:09;;;;;;;1.40;1.30;;;17.10;99.90;;;;;;5013863;28;20447;-70
2021/08/27 10:57:46;;;;;;;1.10;0.97;;;17.20;99.90;;;;;;5013777;28;20421;-70
2021/08/27 11:00:12;;;;;;;1.40;1.30;;;17.10;99.90;;;;;;5013766;28;20475;-70
2021/08/27 11:02:54;;;;;;;1.90;1.80;;;17.10;99.90;;;;;;5013735;28;20437;-70
2021/08/27 11:05:38;;;;;;;1.80;1.70;;;17.00;99.90;;;;;;5013684;28;20412;-70
2021/08/27 11:08:07;;;;;;;1.60;1.50;;;17.00;99.90;;;;;;5013615;28;20421;-70
2021/08/27 11:10:35;;;;;;;1.97;1.87;;;17.10;99.90;;;;;;5013466;28;20427;-71
2021/08/27 11:13:01;;;;;;;1.30;1.20;;;17.30;99.90;;;;;;5013639;28;20441;-70
2021/08/27 11:15:30;;;;;;;2.10;1.40;;;17.40;99.90;;;;;;5013425;28;20413;-70
2021/08/27 11:18:05;;;;;;;1.30;1.20;;;17.40;99.90;;;;;;5013580;28;20670;-71
2021/08/27 11:20:31;;;;;;;1.30;1.20;;;17.40;99.90;;;;;;5013268;28;20999;-70
2021/08/27 11:22:57;;;;;;;1.90;1.80;;;17.70;99.90;;;;;;5013203;28;20429;-70
2021/08/27 11:25:24;;;;;;;1.70;1.60;;;17.90;99.90;;;;;;5013429;28;20168;-71
2021/08/27 11:28:09;;;;;;;2.03;1.30;;;17.80;99.90;;;;;;5012694;28;20892;-70
2021/08/27 11:30:37;;;;;;;1.60;1.50;;;17.70;99.90;;;;;;5013303;28;20960;-70
2021/08/27 11:33:03;;;;;;;1.23;1.13;;;17.70;99.90;;;;;;5012772;28;20891;-70
2021/08/27 11:35:29;;;;;;;1.03;0.93;;;17.90;99.90;;;;;;5013157;28;20429;-70
2021/08/27 11:37:58;;;;;;;1.13;1.03;;;18.30;99.90;;;;;;5013067;28;20553;-70
2021/08/27 11:40:24;;;;;;;1.07;0.90;;;18.20;99.90;;;;;;5013115;28;20577;-70
2021/08/27 11:42:54;;;;;;;1.40;1.10;;;18.30;99.90;;;;;;5012873;28;20431;-70
2021/08/27 11:45:21;;;;;;;1.80;0.90;;;18.10;99.90;;;;;;5012926;28;20406;-70
2021/08/27 11:47:55;;;;;;;0.97;0.87;;;17.90;99.90;;;;;;5013186;28;20415;-70
2021/08/27 11:50:34;;;;;;;1.00;0.90;;;18.00;99.90;;;;;;5013132;28;20831;-70
2021/08/27 11:53:01;;;;;;;1.00;0.80;;;18.20;99.90;;;;;;5012629;28;20422;-70
2021/08/27 11:55:28;;;;;;;3.03;0.80;;;18.10;99.90;;;;;;5012879;28;20839;-70
2021/08/27 11:57:55;;;;;;;1.40;0.97;;;18.20;99.90;;;;;;5012532;28;20439;-70
2021/08/27 12:00:23;;;;;;;1.20;1.10;;;18.40;99.90;;;;;;5012544;28;20994;-70
2021/08/27 12:02:55;;;;;;;1.07;0.97;;;18.20;99.90;;;;;;5012442;28;20415;-70
2021/08/27 12:05:21;;;;;;;1.00;0.87;;;18.00;99.90;;;;;;5012676;28;20418;-70
2021/08/27 12:07:58;;;;;;;0.90;0.90;;;18.20;99.90;;;;;;5012419;28;20411;-70
2021/08/27 12:10:25;;;;;;;1.13;1.03;;;18.20;99.90;;;;;;5012783;28;20407;-70
2021/08/27 12:12:54;;;;;;;0.73;0.73;;;18.00;99.90;;;;;;5012695;28;20621;-70
2021/08/27 12:15:43;;;;;;;0.90;0.90;;;18.10;99.90;;;;;;5012666;28;20407;-70
2021/08/27 12:18:11;;;;;;;0.97;0.97;;;17.80;99.90;;;;;;5012375;28;20812;-70
2021/08/27 12:20:39;;;;;;;1.10;1.00;;;17.70;99.90;;;;;;5012432;28;20451;-70
2021/08/27 12:23:09;;;;;;;1.10;0.90;;;17.90;99.90;;;;;;5012340;28;20445;-70
2021/08/27 12:25:40;;;;;;;1.23;1.00;;;17.80;99.90;;;;;;5012970;28;20836;-70
2021/08/27 12:28:06;;;;;;;0.70;0.70;;;18.10;99.90;;;;;;5013009;28;20413;-70
2021/08/27 12:30:32;;;;;;;1.10;1.00;;;18.10;99.90;;;;;;5012819;28;20414;-70
2021/08/27 12:32:58;;;;;;;1.03;0.87;;;17.90;99.90;;;;;;5013306;28;20469;-70
2021/08/27 12:35:36;;;;;;;1.00;0.90;;;17.60;99.90;;;;;;5013213;28;20445;-70
2021/08/27 12:38:03;;;;;;;0.90;0.83;;;17.40;99.90;;;;;;5012582;28;20576;-70
2021/08/27 12:40:30;;;;;;;1.73;0.93;;;17.20;99.90;;;;;;5011567;28;20454;-71
2021/08/27 12:43:14;;;;;;;0.70;0.70;;;17.30;99.90;;;;;;5012489;28;21021;-71
2021/08/27 12:45:44;;;;;;;1.00;0.70;;;17.50;99.90;;;;;;5013032;28;20506;-70
2021/08/27 12:48:11;;;;;;;0.80;0.80;;;17.60;99.90;;;;;;5012104;28;20781;-70
2021/08/27 12:50:54;;;;;;;0.83;0.70;;;17.50;99.90;;;;;;5011848;28;20426;-70
2021/08/27 12:53:29;;;;;;;0.80;0.80;;;17.50;99.90;;;;;;5011808;28;20482;-69
2021/08/27 12:56:15;;;;;;;1.53;0.80;;;17.50;99.90;;;;;;5011687;28;20425;-69